createdAt,value
2018-05-12T00:00:52.972Z,0.00
2018-05-12T00:01:53.084Z,0.00
2018-05-12T00:02:53.403Z,0.00
2018-05-12T00:03:52.515Z,0.00
2018-05-12T00:04:52.610Z,0.00
2018-05-12T00:05:52.368Z,0.00
2018-05-12T00:07:13.877Z,0.00
2018-05-12T00:08:14.499Z,0.00
2018-05-12T00:09:14.072Z,0.00
2018-05-12T00:10:14.278Z,0.00
2018-05-12T00:11:13.873Z,0.00
2018-05-12T00:12:14.546Z,0.00
2018-05-12T00:13:14.396Z,0.00
2018-05-12T00:14:13.959Z,0.00
2018-05-12T00:15:35.414Z,0.00
2018-05-12T00:16:36.393Z,0.00
2018-05-12T00:17:35.942Z,0.00
2018-05-12T00:18:36.162Z,0.00
2018-05-12T00:19:36.329Z,0.00
2018-05-12T00:20:36.096Z,0.00
2018-05-12T00:21:36.102Z,0.00
2018-05-12T00:22:36.775Z,0.00
2018-05-12T00:23:35.811Z,0.00
2018-05-12T00:24:35.969Z,0.00
2018-05-12T00:25:35.912Z,0.00
2018-05-12T00:26:35.954Z,0.00
2018-05-12T00:27:58.695Z,0.00
2018-05-12T00:28:58.769Z,0.00
2018-05-12T00:30:19.475Z,0.00
2018-05-12T00:31:19.489Z,0.00
2018-05-12T00:32:40.017Z,0.00
2018-05-12T00:33:40.178Z,0.00
2018-05-12T00:34:39.875Z,0.00
2018-05-12T00:35:40.015Z,0.00
2018-05-12T00:36:40.291Z,0.00
2018-05-12T00:37:40.460Z,0.00
2018-05-12T00:39:00.908Z,0.00
2018-05-12T00:40:22.833Z,0.00
2018-05-12T00:41:22.620Z,0.00
2018-05-12T00:42:43.616Z,0.00
2018-05-12T00:43:44.148Z,0.00
2018-05-12T00:44:44.304Z,0.00
2018-05-12T00:45:44.104Z,0.00
2018-05-12T00:46:43.899Z,0.00
2018-05-12T00:47:44.798Z,0.00
2018-05-12T00:48:44.514Z,0.00
2018-05-12T00:49:44.396Z,0.00
2018-05-12T00:51:05.237Z,0.00
2018-05-12T00:52:05.339Z,0.00
2018-05-12T00:53:05.352Z,0.00
2018-05-12T00:54:05.055Z,0.00
2018-05-12T00:55:06.158Z,0.00
2018-05-12T00:56:05.265Z,0.00
2018-05-12T00:57:04.894Z,0.00
2018-05-12T00:58:05.883Z,0.00
2018-05-12T00:59:05.577Z,0.00
2018-05-12T01:00:46.837Z,0.00
2018-05-12T01:01:47.387Z,0.00
2018-05-12T01:02:47.142Z,0.00
2018-05-12T01:03:46.912Z,0.00
2018-05-12T01:04:48.013Z,0.00
2018-05-12T01:05:47.959Z,0.00
2018-05-12T01:07:07.862Z,0.00
2018-05-12T01:08:08.626Z,0.00
2018-05-12T01:09:08.744Z,0.00
2018-05-12T01:10:08.443Z,0.00
2018-05-12T01:11:08.555Z,0.00
2018-05-12T01:12:08.621Z,0.00
2018-05-12T01:13:08.285Z,0.00
2018-05-12T01:14:08.243Z,0.00
2018-05-12T01:15:07.944Z,0.00
2018-05-12T01:16:08.570Z,0.00
2018-05-12T01:17:28.910Z,0.00
2018-05-12T01:18:50.271Z,0.00
2018-05-12T01:19:51.388Z,0.00
2018-05-12T01:20:50.945Z,0.00
2018-05-12T01:21:51.098Z,0.00
2018-05-12T01:22:50.713Z,0.00
2018-05-12T01:23:51.952Z,0.00
2018-05-12T01:24:50.919Z,0.00
2018-05-12T01:25:50.804Z,0.00
2018-05-12T01:26:50.413Z,0.00
2018-05-12T01:27:50.302Z,0.00
2018-05-12T01:28:50.933Z,0.00
2018-05-12T01:29:50.557Z,0.00
2018-05-12T01:30:50.289Z,0.00
2018-05-12T01:31:50.956Z,0.00
2018-05-12T01:32:51.022Z,0.00
2018-05-12T01:33:50.596Z,0.00
2018-05-12T01:34:50.696Z,0.00
2018-05-12T01:35:50.463Z,0.00
2018-05-12T01:36:51.390Z,0.00
2018-05-12T01:37:50.931Z,0.00
2018-05-12T01:38:50.651Z,0.00
2018-05-12T01:39:50.829Z,0.00
2018-05-12T01:40:50.539Z,0.00
2018-05-12T01:41:51.156Z,0.00
2018-05-12T01:42:51.079Z,0.00
2018-05-12T01:43:50.922Z,0.00
2018-05-12T01:44:51.057Z,0.00
2018-05-12T01:45:51.009Z,0.00
2018-05-12T01:46:50.688Z,0.00
2018-05-12T01:47:50.772Z,0.00
2018-05-12T01:48:50.417Z,0.00
2018-05-12T01:49:51.496Z,0.00
2018-05-12T01:50:50.643Z,0.00
2018-05-12T01:51:50.235Z,0.00
2018-05-12T01:52:51.218Z,0.00
2018-05-12T01:53:50.779Z,0.00
2018-05-12T01:54:50.854Z,0.00
2018-05-12T01:55:50.845Z,0.00
2018-05-12T01:57:11.552Z,0.00
2018-05-12T01:58:11.574Z,0.00
2018-05-12T01:59:11.743Z,0.00
2018-05-12T02:00:11.703Z,0.00
2018-05-12T02:01:11.810Z,0.00
2018-05-12T02:02:11.423Z,0.00
2018-05-12T02:03:12.120Z,0.00
2018-05-12T02:04:11.825Z,0.00
2018-05-12T02:05:11.919Z,0.00
2018-05-12T02:06:11.729Z,0.00
2018-05-12T02:07:11.373Z,0.00
2018-05-12T02:08:11.936Z,0.00
2018-05-12T02:09:32.358Z,0.00
2018-05-12T02:10:32.320Z,0.00
2018-05-12T02:11:32.898Z,0.00
2018-05-12T02:12:32.576Z,0.00
2018-05-12T02:13:32.076Z,0.00
2018-05-12T02:14:33.055Z,0.00
2018-05-12T02:15:32.692Z,0.00
2018-05-12T02:16:53.656Z,0.00
2018-05-12T02:17:53.392Z,0.00
2018-05-12T02:18:54.453Z,0.00
2018-05-12T02:19:54.540Z,0.00
2018-05-12T02:20:53.352Z,0.00
2018-05-12T02:21:54.101Z,0.00
2018-05-12T02:22:54.024Z,0.00
2018-05-12T02:23:54.118Z,0.00
2018-05-12T02:24:53.854Z,0.00
2018-05-12T02:25:53.607Z,0.00
2018-05-12T02:27:34.130Z,0.00
2018-05-12T02:28:55.034Z,0.00
2018-05-12T02:29:55.639Z,0.00
2018-05-12T02:30:55.321Z,0.00
2018-05-12T02:31:55.984Z,0.00
2018-05-12T02:32:56.003Z,0.00
2018-05-12T02:33:55.898Z,0.00
2018-05-12T02:35:16.261Z,0.00
2018-05-12T02:36:19.467Z,0.00
2018-05-12T02:37:17.076Z,0.00
2018-05-12T02:38:16.827Z,0.00
2018-05-12T02:39:16.852Z,0.00
2018-05-12T02:40:17.539Z,0.00
2018-05-12T02:41:17.511Z,0.00
2018-05-12T02:42:17.599Z,0.00
2018-05-12T02:43:16.361Z,0.00
2018-05-12T02:44:17.398Z,0.00
2018-05-12T02:45:17.054Z,0.00
2018-05-12T02:46:16.834Z,0.00
2018-05-12T02:47:16.844Z,0.00
2018-05-12T02:48:16.748Z,0.00
2018-05-12T02:49:16.579Z,1.00
2018-05-12T02:50:16.390Z,1.00
2018-05-12T02:51:38.044Z,1.00
2018-05-12T02:52:38.818Z,0.00
2018-05-12T02:53:59.411Z,1.00
2018-05-12T02:55:00.101Z,1.00
2018-05-12T02:56:00.113Z,2.00
2018-05-12T02:57:00.224Z,1.00
2018-05-12T02:58:00.113Z,2.00
2018-05-12T02:59:00.089Z,2.00
2018-05-12T03:01:01.470Z,3.00
2018-05-12T03:02:01.242Z,3.00
2018-05-12T03:03:01.860Z,4.00
2018-05-12T03:04:01.493Z,4.00
2018-05-12T03:05:01.598Z,4.00
2018-05-12T03:06:01.584Z,6.00
2018-05-12T03:07:01.381Z,7.00
2018-05-12T03:08:02.370Z,7.00
2018-05-12T03:09:01.593Z,8.00
2018-05-12T03:10:01.465Z,9.00
2018-05-12T03:11:02.570Z,10.00
2018-05-12T03:12:01.159Z,12.00
2018-05-12T03:13:02.298Z,14.00
2018-05-12T03:14:01.900Z,16.00
2018-05-12T03:15:01.526Z,18.00
2018-05-12T03:16:01.075Z,21.00
2018-05-12T03:17:01.812Z,23.00
2018-05-12T03:18:01.451Z,26.00
2018-05-12T03:19:21.595Z,31.00
2018-05-12T03:20:22.297Z,36.00
2018-05-12T03:21:22.338Z,40.00
2018-05-12T03:22:22.131Z,46.00
2018-05-12T03:23:21.890Z,53.00
2018-05-12T03:24:22.833Z,60.00
2018-05-12T03:25:22.445Z,68.00
2018-05-12T03:26:43.101Z,79.00
2018-05-12T03:27:43.818Z,87.00
2018-05-12T03:28:43.707Z,97.00
2018-05-12T03:30:04.208Z,112.00
2018-05-12T03:31:04.022Z,124.00
2018-05-12T03:32:04.822Z,135.00
2018-05-12T03:33:45.821Z,157.00
2018-05-12T03:34:46.958Z,169.00
2018-05-12T03:35:46.877Z,183.00
2018-05-12T03:36:46.534Z,196.00
2018-05-12T03:37:46.542Z,210.00
2018-05-12T03:38:46.664Z,223.00
2018-05-12T03:40:06.942Z,240.00
2018-05-12T03:41:07.866Z,253.00
2018-05-12T03:42:07.496Z,268.00
2018-05-12T03:43:07.597Z,285.00
2018-05-12T03:44:07.137Z,305.00
2018-05-12T03:45:28.181Z,335.00
2018-05-12T03:46:28.920Z,358.00
2018-05-12T03:47:28.922Z,381.00
2018-05-12T03:48:28.915Z,405.00
2018-05-12T03:49:28.567Z,430.00
2018-05-12T03:50:28.264Z,455.00
2018-05-12T03:51:49.885Z,494.00
2018-05-12T03:52:50.736Z,525.00
2018-05-12T03:53:50.371Z,559.00
2018-05-12T03:54:50.435Z,598.00
2018-05-12T03:55:50.187Z,643.00
2018-05-12T03:56:50.850Z,691.00
2018-05-12T03:57:50.397Z,742.00
2018-05-12T03:58:50.224Z,793.00
2018-05-12T03:59:50.662Z,845.00
2018-05-12T04:00:50.803Z,904.00
2018-05-12T04:01:50.730Z,965.00
2018-05-12T04:03:31.483Z,1079.00
2018-05-12T04:05:14.126Z,1242.00
2018-05-12T04:06:14.196Z,1353.00
2018-05-12T04:07:14.173Z,1469.00
2018-05-12T04:08:56.314Z,1641.00
2018-05-12T04:10:16.862Z,1741.00
2018-05-12T04:11:16.631Z,1805.00
2018-05-12T04:12:17.700Z,1886.00
2018-05-12T04:13:37.477Z,1997.00
2018-05-12T04:14:37.200Z,2081.00
2018-05-12T04:15:38.033Z,2172.00
2018-05-12T04:16:38.277Z,2264.00
2018-05-12T04:17:37.965Z,2360.00
2018-05-12T04:18:38.003Z,2458.00
2018-05-12T04:19:38.062Z,2548.00
2018-05-12T04:20:38.091Z,2626.00
2018-05-12T04:21:38.284Z,2701.00
2018-05-12T04:22:57.525Z,2799.00
2018-05-12T04:23:58.650Z,2873.00
2018-05-12T04:24:58.837Z,2950.00
2018-05-12T04:25:57.972Z,3032.00
2018-05-12T04:26:57.864Z,3121.00
2018-05-12T04:27:58.803Z,3199.00
2018-05-12T04:28:57.549Z,3263.00
2018-05-12T04:29:58.384Z,3340.00
2018-05-12T04:30:58.208Z,3423.00
2018-05-12T04:31:58.203Z,3498.00
2018-05-12T04:32:58.232Z,3563.00
2018-05-12T04:33:58.053Z,3636.00
2018-05-12T04:34:58.299Z,3718.00
2018-05-12T04:35:58.409Z,3812.00
2018-05-12T04:36:58.193Z,3840.00
2018-05-12T04:37:58.134Z,3890.00
2018-05-12T04:38:58.268Z,3994.00
2018-05-12T04:39:58.457Z,4056.00
2018-05-12T04:40:58.571Z,4131.00
2018-05-12T04:41:58.705Z,4201.00
2018-05-12T04:42:58.808Z,4277.00
2018-05-12T04:43:57.462Z,4351.00
2018-05-12T04:44:58.352Z,4446.00
2018-05-12T04:46:02.811Z,4552.00
2018-05-12T04:46:58.091Z,4659.00
2018-05-12T04:47:57.856Z,4755.00
2018-05-12T04:48:58.180Z,4875.00
2018-05-12T04:49:57.938Z,4945.00
2018-05-12T04:50:58.137Z,5038.00
2018-05-12T04:52:18.489Z,5164.00
2018-05-12T04:53:20.704Z,5272.00
2018-05-12T04:54:19.077Z,5325.00
2018-05-12T04:55:19.093Z,5310.00
2018-05-12T04:56:19.135Z,5181.00
2018-05-12T04:57:18.773Z,4997.00
2018-05-12T04:58:18.773Z,4870.00
2018-05-12T04:59:19.366Z,4870.00
2018-05-12T05:00:19.535Z,4974.00
2018-05-12T05:01:19.326Z,5104.00
2018-05-12T05:02:19.072Z,5231.00
2018-05-12T05:03:19.340Z,5348.00
2018-05-12T05:04:19.438Z,5450.00
2018-05-12T05:05:19.698Z,5549.00
2018-05-12T05:06:19.751Z,5649.00
2018-05-12T05:07:19.003Z,5716.00
2018-05-12T05:08:39.365Z,5805.00
2018-05-12T05:09:39.597Z,5904.00
2018-05-12T05:10:39.880Z,6056.00
2018-05-12T05:11:39.918Z,6209.00
2018-05-12T05:12:39.836Z,6302.00
2018-05-12T05:13:39.573Z,6314.00
2018-05-12T05:14:39.807Z,6296.00
2018-05-12T05:16:02.181Z,6295.00
2018-05-12T05:17:00.189Z,6303.00
2018-05-12T05:18:01.012Z,6354.00
2018-05-12T05:19:21.889Z,6480.00
2018-05-12T05:20:22.316Z,6791.00
2018-05-12T05:21:22.582Z,6716.00
2018-05-12T05:22:22.989Z,6723.00
2018-05-12T05:23:22.148Z,6697.00
2018-05-12T05:24:22.395Z,6664.00
2018-05-12T05:25:43.111Z,6750.00
2018-05-12T05:26:44.200Z,6813.00
2018-05-12T05:27:44.055Z,7009.00
2018-05-12T05:28:44.051Z,6970.00
2018-05-12T05:30:05.469Z,7153.00
2018-05-12T05:31:05.471Z,7479.00
2018-05-12T05:32:05.214Z,7774.00
2018-05-12T05:33:05.063Z,8102.00
2018-05-12T05:34:05.148Z,8527.00
2018-05-12T05:35:05.806Z,9171.00
2018-05-12T05:36:06.836Z,9947.00
2018-05-12T05:37:08.982Z,10510.00
2018-05-12T05:38:05.212Z,10791.00
2018-05-12T05:39:05.555Z,11992.00
2018-05-12T05:40:04.824Z,11055.00
2018-05-12T05:41:12.899Z,12442.00
2018-05-12T05:42:04.784Z,10737.00
2018-05-12T05:43:05.141Z,10791.00
2018-05-12T05:44:06.014Z,10648.00
2018-05-12T05:45:06.065Z,10777.00
2018-05-12T05:46:05.083Z,10441.00
2018-05-12T05:47:04.781Z,11308.00
2018-05-12T05:48:05.326Z,10630.00
2018-05-12T05:49:06.298Z,10897.00
2018-05-12T05:50:05.521Z,11148.00
2018-05-12T05:51:09.769Z,11450.00
2018-05-12T05:52:04.601Z,12473.00
2018-05-12T05:53:05.838Z,12394.00
2018-05-12T05:54:04.863Z,15498.00
2018-05-12T05:55:05.669Z,15418.00
2018-05-12T05:56:05.408Z,13179.00
2018-05-12T05:57:06.851Z,13346.00
2018-05-12T05:58:04.976Z,13685.00
2018-05-12T05:59:10.301Z,16234.00
2018-05-12T06:00:05.250Z,17680.00
2018-05-12T06:01:05.063Z,15543.00
2018-05-12T06:02:05.029Z,14101.00
2018-05-12T06:03:04.882Z,15674.00
2018-05-12T06:04:05.221Z,17800.00
2018-05-12T06:05:05.243Z,13453.00
2018-05-12T06:06:05.718Z,16688.00
2018-05-12T06:07:05.238Z,14693.00
2018-05-12T06:08:05.249Z,15096.00
2018-05-12T06:09:05.595Z,14168.00
2018-05-12T06:10:04.688Z,17904.00
2018-05-12T06:11:05.052Z,14296.00
2018-05-12T06:12:04.931Z,15798.00
2018-05-12T06:13:04.978Z,15402.00
2018-05-12T06:14:05.287Z,19088.00
2018-05-12T06:15:46.348Z,15253.00
2018-05-12T06:16:47.480Z,15452.00
2018-05-12T06:17:47.266Z,15749.00
2018-05-12T06:18:47.470Z,16265.00
2018-05-12T06:19:47.280Z,16475.00
2018-05-12T06:20:46.996Z,16481.00
2018-05-12T06:21:47.406Z,19000.00
2018-05-12T06:23:08.754Z,27808.00
2018-05-12T06:24:09.108Z,17246.00
2018-05-12T06:25:09.427Z,24032.00
2018-05-12T06:26:08.458Z,23656.00
2018-05-12T06:27:29.683Z,16873.00
2018-05-12T06:28:29.854Z,17195.00
2018-05-12T06:29:30.122Z,17562.00
2018-05-12T06:30:30.268Z,30568.00
2018-05-12T06:31:30.080Z,17586.00
2018-05-12T06:32:29.879Z,19136.00
2018-05-12T06:33:29.771Z,30920.00
2018-05-12T06:34:30.238Z,21280.00
2018-05-12T06:35:30.549Z,19720.00
2018-05-12T06:36:29.345Z,36240.00
2018-05-12T06:37:29.898Z,26416.00
2018-05-12T06:38:29.838Z,19224.00
2018-05-12T06:39:30.279Z,42640.00
2018-05-12T06:40:32.030Z,41000.00
2018-05-12T06:41:30.662Z,18880.00
2018-05-12T06:42:30.879Z,18440.00
2018-05-12T06:43:30.114Z,18136.00
2018-05-12T06:44:30.098Z,18896.00
2018-05-12T06:45:51.313Z,21808.00
2018-05-12T06:46:51.141Z,22760.00
2018-05-12T06:47:51.855Z,22704.00
2018-05-12T06:48:52.010Z,22384.00
2018-05-12T06:50:01.995Z,31264.00
2018-05-12T06:50:51.018Z,42040.00
2018-05-12T06:51:51.232Z,44376.00
2018-05-12T06:52:51.368Z,44424.00
2018-05-12T06:53:51.755Z,44104.00
2018-05-12T06:54:51.640Z,41720.00
2018-05-12T06:55:51.719Z,46528.00
2018-05-12T06:56:52.018Z,45424.00
2018-05-12T06:57:51.873Z,45032.00
2018-05-12T06:58:51.718Z,43792.00
2018-05-12T06:59:51.930Z,42328.00
2018-05-12T07:00:51.468Z,44280.00
2018-05-12T07:01:52.745Z,45328.00
2018-05-12T07:03:33.953Z,43768.00
2018-05-12T07:04:35.127Z,50792.00
2018-05-12T07:05:34.305Z,51592.00
2018-05-12T07:06:34.130Z,51696.00
2018-05-12T07:07:35.234Z,54360.00
2018-05-12T07:08:34.165Z,52640.00
2018-05-12T07:09:34.015Z,56864.00
2018-05-12T07:10:36.400Z,52992.00
2018-05-12T07:11:34.735Z,56144.00
2018-05-12T07:12:34.625Z,57024.00
2018-05-12T07:13:55.577Z,56328.00
2018-05-12T07:14:56.964Z,57896.00
2018-05-12T07:15:56.189Z,59104.00
2018-05-12T07:16:55.892Z,58432.00
2018-05-12T07:17:55.742Z,58880.00
2018-05-12T07:18:56.833Z,46048.00
2018-05-12T07:19:55.609Z,61952.00
2018-05-12T07:20:56.699Z,30560.00
2018-05-12T07:21:57.234Z,29744.00
2018-05-12T07:22:56.654Z,36960.00
2018-05-12T07:23:56.010Z,41800.00
2018-05-12T07:24:55.824Z,29232.00
2018-05-12T07:25:55.917Z,44272.00
2018-05-12T07:26:55.711Z,29896.00
2018-05-12T07:28:17.912Z,51896.00
2018-05-12T07:29:18.233Z,59376.00
2018-05-12T07:30:19.171Z,29040.00
2018-05-12T07:31:20.987Z,24768.00
2018-05-12T07:32:17.757Z,23960.00
2018-05-12T07:33:17.640Z,24256.00
2018-05-12T07:34:18.727Z,31424.00
2018-05-12T07:35:18.001Z,39968.00
2018-05-12T07:36:17.937Z,25952.00
2018-05-12T07:37:17.683Z,49352.00
2018-05-12T07:38:17.998Z,63176.00
2018-05-12T07:39:39.374Z,65535.00
2018-05-12T07:40:39.251Z,65535.00
2018-05-12T07:41:39.576Z,65535.00
2018-05-12T07:42:39.374Z,65535.00
2018-05-12T07:43:39.156Z,65535.00
2018-05-12T07:44:39.920Z,65535.00
2018-05-12T07:45:40.230Z,65535.00
2018-05-12T07:46:39.565Z,64984.00
2018-05-12T07:47:39.590Z,62048.00
2018-05-12T07:49:00.746Z,61472.00
2018-05-12T07:50:01.198Z,60520.00
2018-05-12T07:51:01.365Z,57448.00
2018-05-12T07:52:01.236Z,55096.00
2018-05-12T07:53:01.473Z,56112.00
2018-05-12T07:54:00.399Z,52728.00
2018-05-12T07:55:21.855Z,51984.00
2018-05-12T07:56:22.746Z,56768.00
2018-05-12T07:57:23.156Z,60352.00
2018-05-12T07:58:22.073Z,62024.00
2018-05-12T07:59:22.178Z,62584.00
2018-05-12T08:00:22.566Z,62872.00
2018-05-12T08:02:03.801Z,65535.00
2018-05-12T08:03:04.747Z,65535.00
2018-05-12T08:04:04.665Z,65535.00
2018-05-12T08:05:04.621Z,65535.00
2018-05-12T08:06:26.087Z,65535.00
2018-05-12T08:07:26.201Z,65535.00
2018-05-12T08:08:46.902Z,64576.00
2018-05-12T08:09:48.210Z,64424.00
2018-05-12T08:10:47.110Z,65535.00
2018-05-12T08:11:47.266Z,65535.00
2018-05-12T08:13:08.693Z,65535.00
2018-05-12T08:14:08.820Z,65535.00
2018-05-12T08:15:09.069Z,65535.00
2018-05-12T08:16:09.218Z,65535.00
2018-05-12T08:17:29.910Z,65535.00
2018-05-12T08:18:30.512Z,65535.00
2018-05-12T08:19:50.920Z,65535.00
2018-05-12T08:20:52.168Z,65535.00
2018-05-12T08:21:51.112Z,65535.00
2018-05-12T08:22:50.963Z,65535.00
2018-05-12T08:23:51.784Z,65535.00
2018-05-12T08:24:51.524Z,65535.00
2018-05-12T08:25:51.674Z,65535.00
2018-05-12T08:26:52.048Z,65535.00
2018-05-12T08:27:51.859Z,65535.00
2018-05-12T08:28:51.645Z,65535.00
2018-05-12T08:29:51.487Z,65535.00
2018-05-12T08:30:51.369Z,65535.00
2018-05-12T08:31:51.556Z,65535.00
2018-05-12T08:32:51.756Z,65535.00
2018-05-12T08:33:51.589Z,65535.00
2018-05-12T08:35:33.007Z,65535.00
2018-05-12T08:36:32.994Z,65535.00
2018-05-12T08:37:34.967Z,65535.00
2018-05-12T08:38:33.844Z,65535.00
2018-05-12T08:40:16.455Z,65535.00
2018-05-12T08:41:16.392Z,65535.00
2018-05-12T08:42:16.596Z,65535.00
2018-05-12T08:43:16.551Z,65535.00
2018-05-12T08:44:16.782Z,65535.00
2018-05-12T08:45:17.043Z,65535.00
2018-05-12T08:46:38.045Z,65535.00
2018-05-12T08:47:37.962Z,65535.00
2018-05-12T08:48:38.434Z,65535.00
2018-05-12T08:49:59.626Z,65535.00
2018-05-12T08:51:20.261Z,65535.00
2018-05-12T08:52:20.943Z,65535.00
2018-05-12T08:53:21.124Z,65535.00
2018-05-12T08:54:42.203Z,65535.00
2018-05-12T08:55:52.712Z,65535.00
2018-05-12T08:56:47.220Z,65535.00
2018-05-12T08:57:42.216Z,65535.00
2018-05-12T08:59:03.101Z,65535.00
2018-05-12T09:00:03.093Z,65535.00
2018-05-12T09:01:05.650Z,65535.00
2018-05-12T09:02:03.891Z,65535.00
2018-05-12T09:03:04.767Z,65535.00
2018-05-12T09:04:04.728Z,65535.00
2018-05-12T09:05:03.583Z,65535.00
2018-05-12T09:06:03.529Z,65535.00
2018-05-12T09:07:03.584Z,65535.00
2018-05-12T09:08:03.431Z,65535.00
2018-05-12T09:09:03.731Z,65535.00
2018-05-12T09:10:24.733Z,65535.00
2018-05-12T09:11:47.246Z,65535.00
2018-05-12T09:13:08.366Z,65535.00
2018-05-12T09:14:08.239Z,65535.00
2018-05-12T09:15:08.231Z,65535.00
2018-05-12T09:16:08.689Z,65535.00
2018-05-12T09:17:35.357Z,65535.00
2018-05-12T09:18:31.201Z,65535.00
2018-05-12T09:19:31.431Z,65535.00
2018-05-12T09:20:31.803Z,65535.00
2018-05-12T09:21:32.166Z,65535.00
2018-05-12T09:22:31.764Z,65535.00
2018-05-12T09:23:32.019Z,65535.00
2018-05-12T09:24:32.195Z,65535.00
2018-05-12T09:25:31.342Z,65535.00
2018-05-12T09:26:52.943Z,65535.00
2018-05-12T09:27:53.923Z,65535.00
2018-05-12T09:28:52.836Z,65535.00
2018-05-12T09:29:53.090Z,65535.00
2018-05-12T09:30:52.988Z,65535.00
2018-05-12T09:31:53.080Z,65535.00
2018-05-12T09:32:53.232Z,65535.00
2018-05-12T09:33:53.548Z,65535.00
2018-05-12T09:34:52.747Z,65535.00
2018-05-12T09:35:52.900Z,65535.00
2018-05-12T09:36:53.037Z,65535.00
2018-05-12T09:37:53.373Z,65535.00
2018-05-12T09:39:34.516Z,53456.00
2018-05-12T09:40:57.527Z,65535.00
2018-05-12T09:41:56.326Z,65535.00
2018-05-12T09:42:56.209Z,65535.00
2018-05-12T09:43:56.031Z,65535.00
2018-05-12T09:44:56.033Z,65535.00
2018-05-12T09:45:56.060Z,65535.00
2018-05-12T09:46:56.804Z,54736.00
2018-05-12T09:47:56.728Z,65535.00
2018-05-12T09:48:56.632Z,42440.00
2018-05-12T09:49:56.907Z,65535.00
2018-05-12T09:51:17.290Z,36896.00
2018-05-12T09:52:19.463Z,65535.00
2018-05-12T09:53:18.241Z,65535.00
2018-05-12T09:54:18.836Z,65535.00
2018-05-12T09:55:17.736Z,65535.00
2018-05-12T09:56:17.835Z,41528.00
2018-05-12T09:57:17.970Z,40320.00
2018-05-12T09:58:18.850Z,44584.00
2018-05-12T09:59:17.926Z,35264.00
2018-05-12T10:00:18.226Z,30856.00
2018-05-12T10:01:17.637Z,31096.00
2018-05-12T10:02:17.699Z,31720.00
2018-05-12T10:03:17.519Z,36464.00
2018-05-12T10:04:17.696Z,51424.00
2018-05-12T10:05:18.526Z,57120.00
2018-05-12T10:06:17.508Z,50864.00
2018-05-12T10:07:17.759Z,45760.00
2018-05-12T10:08:17.751Z,45736.00
2018-05-12T10:09:18.040Z,42688.00
2018-05-12T10:10:18.303Z,42488.00
2018-05-12T10:11:17.514Z,65535.00
2018-05-12T10:12:17.826Z,42416.00
2018-05-12T10:13:18.060Z,42848.00
2018-05-12T10:14:17.920Z,40936.00
2018-05-12T10:15:18.232Z,40744.00
2018-05-12T10:16:18.012Z,65535.00
2018-05-12T10:17:17.732Z,65535.00
2018-05-12T10:18:19.199Z,65535.00
2018-05-12T10:19:17.305Z,65535.00
2018-05-12T10:20:17.536Z,65535.00
2018-05-12T10:21:18.548Z,65535.00
2018-05-12T10:22:17.816Z,65535.00
2018-05-12T10:23:18.207Z,65535.00
2018-05-12T10:24:17.520Z,65535.00
2018-05-12T10:25:17.394Z,65535.00
2018-05-12T10:26:37.801Z,35376.00
2018-05-12T10:27:38.661Z,33752.00
2018-05-12T10:28:38.836Z,50072.00
2018-05-12T10:29:38.966Z,65535.00
2018-05-12T10:30:38.152Z,65535.00
2018-05-12T10:31:39.105Z,65535.00
2018-05-12T10:32:38.077Z,65535.00
2018-05-12T10:33:58.967Z,46104.00
2018-05-12T10:34:59.259Z,37704.00
2018-05-12T10:35:59.024Z,65535.00
2018-05-12T10:36:58.960Z,65535.00
2018-05-12T10:37:58.724Z,44640.00
2018-05-12T10:38:58.651Z,49784.00
2018-05-12T10:40:19.122Z,65535.00
2018-05-12T10:41:40.934Z,65535.00
2018-05-12T10:42:42.206Z,46248.00
2018-05-12T10:44:02.846Z,64032.00
2018-05-12T10:45:02.363Z,44672.00
2018-05-12T10:46:02.625Z,65535.00
2018-05-12T10:47:02.711Z,65535.00
2018-05-12T10:48:02.639Z,38168.00
2018-05-12T10:49:02.827Z,34920.00
2018-05-12T10:50:02.736Z,33992.00
2018-05-12T10:51:02.647Z,33624.00
2018-05-12T10:52:02.632Z,34024.00
2018-05-12T10:53:02.828Z,35848.00
2018-05-12T10:54:03.123Z,37376.00
2018-05-12T10:55:02.557Z,38008.00
2018-05-12T10:56:02.679Z,45056.00
2018-05-12T10:57:02.818Z,65535.00
2018-05-12T10:58:02.011Z,65535.00
2018-05-12T10:59:01.943Z,39760.00
2018-05-12T11:00:02.272Z,34448.00
2018-05-12T11:01:02.279Z,32824.00
2018-05-12T11:02:02.547Z,32544.00
2018-05-12T11:03:02.716Z,32648.00
2018-05-12T11:04:02.753Z,32416.00
2018-05-12T11:05:03.097Z,33024.00
2018-05-12T11:06:02.617Z,32800.00
2018-05-12T11:07:02.718Z,33200.00
2018-05-12T11:08:03.772Z,34288.00
2018-05-12T11:09:02.643Z,33232.00
2018-05-12T11:10:03.309Z,61864.00
2018-05-12T11:11:23.521Z,38760.00
2018-05-12T11:12:24.393Z,48720.00
2018-05-12T11:13:44.393Z,35840.00
2018-05-12T11:14:46.079Z,34168.00
2018-05-12T11:15:45.475Z,36168.00
2018-05-12T11:16:45.242Z,31768.00
2018-05-12T11:17:45.514Z,31792.00
2018-05-12T11:18:44.800Z,33056.00
2018-05-12T11:19:46.321Z,65535.00
2018-05-12T11:20:45.606Z,37576.00
2018-05-12T11:21:45.153Z,56304.00
2018-05-12T11:22:46.363Z,65535.00
2018-05-12T11:23:44.767Z,65535.00
2018-05-12T11:24:44.734Z,65535.00
2018-05-12T11:25:44.663Z,65535.00
2018-05-12T11:26:45.445Z,39488.00
2018-05-12T11:27:44.670Z,37960.00
2018-05-12T11:28:45.181Z,38544.00
2018-05-12T11:30:07.534Z,37584.00
2018-05-12T11:31:06.815Z,36664.00
2018-05-12T11:32:07.428Z,37168.00
2018-05-12T11:33:26.938Z,37176.00
2018-05-12T11:34:28.566Z,39848.00
2018-05-12T11:36:10.079Z,65535.00
2018-05-12T11:37:10.453Z,65535.00
2018-05-12T11:38:10.380Z,58344.00
2018-05-12T11:39:10.885Z,47744.00
2018-05-12T11:40:10.999Z,52120.00
2018-05-12T11:41:11.508Z,49040.00
2018-05-12T11:42:10.536Z,48872.00
2018-05-12T11:43:10.428Z,52216.00
2018-05-12T11:44:10.718Z,65535.00
2018-05-12T11:45:52.262Z,65535.00
2018-05-12T11:46:52.480Z,65535.00
2018-05-12T11:47:52.336Z,65535.00
2018-05-12T11:48:52.352Z,65535.00
2018-05-12T11:49:52.357Z,63776.00
2018-05-12T11:50:52.192Z,49168.00
2018-05-12T11:51:52.365Z,45400.00
2018-05-12T11:52:52.622Z,47704.00
2018-05-12T11:53:52.928Z,65535.00
2018-05-12T11:54:53.132Z,65535.00
2018-05-12T11:55:52.037Z,57944.00
2018-05-12T11:57:12.955Z,65535.00
2018-05-12T11:58:12.877Z,65535.00
2018-05-12T11:59:12.821Z,49680.00
2018-05-12T12:00:13.626Z,65535.00
2018-05-12T12:01:13.421Z,65535.00
2018-05-12T12:02:14.005Z,65535.00
2018-05-12T12:03:13.242Z,65535.00
2018-05-12T12:04:13.579Z,65535.00
2018-05-12T12:05:13.586Z,65535.00
2018-05-12T12:06:13.772Z,65535.00
2018-05-12T12:07:13.568Z,44784.00
2018-05-12T12:08:14.165Z,36192.00
2018-05-12T12:10:36.873Z,33056.00
2018-05-12T12:11:38.136Z,65535.00
2018-05-12T12:12:57.481Z,37048.00
2018-05-12T12:13:58.671Z,41960.00
2018-05-12T12:14:58.596Z,62120.00
2018-05-12T12:15:57.959Z,65535.00
2018-05-12T12:16:59.494Z,65535.00
2018-05-12T12:18:19.570Z,41432.00
2018-05-12T12:19:20.954Z,35800.00
2018-05-12T12:20:20.358Z,36152.00
2018-05-12T12:21:20.731Z,34312.00
2018-05-12T12:22:20.532Z,65535.00
2018-05-12T12:23:19.544Z,32232.00
2018-05-12T12:24:20.517Z,28912.00
2018-05-12T12:25:20.799Z,29616.00
2018-05-12T12:26:19.907Z,33936.00
2018-05-12T12:27:20.207Z,65535.00
2018-05-12T12:28:20.221Z,65535.00
2018-05-12T12:29:20.600Z,50040.00
2018-05-12T12:30:42.031Z,65535.00
2018-05-12T12:31:41.952Z,65535.00
2018-05-12T12:32:42.936Z,65535.00
2018-05-12T12:33:41.858Z,50912.00
2018-05-12T12:34:42.044Z,65535.00
2018-05-12T12:36:03.014Z,65535.00
2018-05-12T12:37:02.754Z,65535.00
2018-05-12T12:38:02.794Z,65535.00
2018-05-12T12:39:02.833Z,65535.00
2018-05-12T12:40:02.648Z,65535.00
2018-05-12T12:41:03.451Z,65535.00
2018-05-12T12:42:03.787Z,65535.00
2018-05-12T12:43:02.756Z,65535.00
2018-05-12T12:44:23.267Z,65535.00
2018-05-12T12:45:24.674Z,65535.00
2018-05-12T12:46:23.593Z,65535.00
2018-05-12T12:47:23.542Z,65535.00
2018-05-12T12:48:23.494Z,65535.00
2018-05-12T12:49:24.297Z,65535.00
2018-05-12T12:50:24.247Z,65535.00